createdAt,value
2023-01-09T00:01:20.901Z,75.71
2023-01-09T00:04:08.136Z,75.52
2023-01-09T00:06:55.936Z,75.66
2023-01-09T00:09:42.843Z,75.53
2023-01-09T00:12:29.640Z,75.74
2023-01-09T00:15:16.549Z,75.89
2023-01-09T00:18:03.436Z,75.64
2023-01-09T00:20:50.703Z,75.85
2023-01-09T00:23:37.564Z,75.83
2023-01-09T00:26:24.386Z,75.63
2023-01-09T00:29:11.816Z,76.03
2023-01-09T00:31:58.635Z,75.55
2023-01-09T00:34:45.428Z,75.88
2023-01-09T00:37:32.207Z,76.09
2023-01-09T00:40:19.353Z,75.66
2023-01-09T00:43:06.127Z,75.70
2023-01-09T00:45:52.983Z,75.92
2023-01-09T00:48:42.364Z,76.01
2023-01-09T00:51:29.196Z,76.01
2023-01-09T00:54:17.781Z,76.31
2023-01-09T00:57:04.646Z,75.75
2023-01-09T00:59:54.208Z,75.57
2023-01-09T01:02:41.182Z,75.86
2023-01-09T01:05:46.653Z,76.07
2023-01-09T01:08:36.176Z,75.83
2023-01-09T01:11:23.506Z,75.83
2023-01-09T01:14:10.349Z,75.80
2023-01-09T01:16:57.154Z,75.68
2023-01-09T01:19:43.940Z,75.86
2023-01-09T01:22:30.744Z,76.21
2023-01-09T01:25:18.029Z,76.21
2023-01-09T01:28:06.216Z,76.04
2023-01-09T01:30:53.067Z,76.01
2023-01-09T01:33:39.984Z,76.01
2023-01-09T01:36:26.799Z,75.62
2023-01-09T01:39:13.571Z,75.99
2023-01-09T01:42:00.559Z,75.80
2023-01-09T01:45:05.011Z,75.88
2023-01-09T01:48:04.215Z,75.79
2023-01-09T01:50:55.625Z,75.68
2023-01-09T01:53:53.785Z,76.05
2023-01-09T01:56:44.365Z,76.06
2023-01-09T01:59:38.940Z,76.03
2023-01-09T02:02:28.839Z,76.08
2023-01-09T02:05:15.797Z,76.25
2023-01-09T02:08:02.668Z,76.08
2023-01-09T02:10:49.628Z,75.96
2023-01-09T02:13:38.761Z,76.02
2023-01-09T02:16:48.009Z,75.98
2023-01-09T02:19:50.073Z,75.69
2023-01-09T02:22:43.746Z,75.66
2023-01-09T02:26:07.599Z,76.21
2023-01-09T02:29:28.859Z,75.87
2023-01-09T02:32:18.798Z,75.91
2023-01-09T02:35:30.222Z,76.09
2023-01-09T02:38:34.849Z,75.88
2023-01-09T02:41:26.882Z,75.83
2023-01-09T02:44:32.557Z,76.02
2023-01-09T02:47:19.979Z,76.17
2023-01-09T02:50:11.378Z,76.27
2023-01-09T02:53:19.135Z,76.01
2023-01-09T02:56:31.763Z,75.98
2023-01-09T02:59:25.384Z,76.16
2023-01-09T03:02:34.466Z,76.15
2023-01-09T03:05:22.873Z,76.18
2023-01-09T03:08:19.459Z,76.00
2023-01-09T03:11:11.891Z,76.38
2023-01-09T03:14:05.328Z,76.41
2023-01-09T03:17:03.091Z,76.17
2023-01-09T03:19:53.056Z,75.94
2023-01-09T03:22:45.609Z,75.96
2023-01-09T03:25:32.779Z,76.29
2023-01-09T03:28:28.215Z,76.22
2023-01-09T03:31:17.895Z,76.06
2023-01-09T03:34:04.881Z,76.21
2023-01-09T03:36:51.711Z,76.26
2023-01-09T03:39:38.572Z,76.41
2023-01-09T03:42:25.340Z,76.09
2023-01-09T03:45:12.183Z,76.24
2023-01-09T03:47:59.420Z,75.95
2023-01-09T03:50:49.226Z,76.33
2023-01-09T03:53:35.978Z,76.07
2023-01-09T03:56:22.994Z,76.16
2023-01-09T03:59:09.882Z,76.17
2023-01-09T04:01:56.999Z,75.99
2023-01-09T04:04:43.910Z,75.94
2023-01-09T04:07:30.789Z,76.39
2023-01-09T04:10:17.668Z,76.37
2023-01-09T04:13:04.496Z,76.13
2023-01-09T04:15:51.325Z,76.17
2023-01-09T04:18:38.123Z,76.13
2023-01-09T04:21:24.998Z,75.89
2023-01-09T04:24:11.915Z,76.12
2023-01-09T04:27:00.779Z,76.33
2023-01-09T04:29:47.768Z,75.92
2023-01-09T04:32:34.577Z,76.12
2023-01-09T04:35:21.637Z,76.55
2023-01-09T04:38:08.443Z,76.15
2023-01-09T04:40:55.227Z,76.54
2023-01-09T04:43:42.219Z,76.72
2023-01-09T04:46:29.063Z,76.06
2023-01-09T04:49:16.075Z,76.59
2023-01-09T04:52:02.893Z,76.78
2023-01-09T04:54:49.922Z,76.73
2023-01-09T04:57:37.352Z,76.55
2023-01-09T05:00:24.140Z,76.65
2023-01-09T05:03:13.367Z,76.69
2023-01-09T05:06:00.212Z,76.51
2023-01-09T05:08:46.966Z,76.39
2023-01-09T05:11:33.770Z,76.19
2023-01-09T05:14:20.617Z,76.35
2023-01-09T05:17:07.382Z,76.40
2023-01-09T05:19:54.264Z,76.73
2023-01-09T05:22:42.212Z,76.48
2023-01-09T05:25:29.022Z,76.47
2023-01-09T05:28:17.926Z,76.40
2023-01-09T05:31:04.926Z,76.60
2023-01-09T05:33:51.944Z,76.46
2023-01-09T05:36:38.941Z,76.21
2023-01-09T05:39:25.832Z,76.44
2023-01-09T05:42:12.632Z,76.81
2023-01-09T05:44:59.401Z,76.42
2023-01-09T05:47:46.239Z,76.26
2023-01-09T05:50:33.126Z,76.31
2023-01-09T05:53:19.907Z,76.29
2023-01-09T05:56:06.872Z,76.22
2023-01-09T05:58:53.623Z,76.29
2023-01-09T06:01:40.429Z,76.11
2023-01-09T06:04:29.828Z,76.51
2023-01-09T06:07:19.982Z,76.55
2023-01-09T06:10:11.387Z,76.35
2023-01-09T06:12:58.145Z,76.39
2023-01-09T06:15:47.560Z,76.38
2023-01-09T06:18:34.312Z,76.56
2023-01-09T06:21:21.138Z,76.50
2023-01-09T06:24:07.993Z,76.76
2023-01-09T06:26:54.758Z,76.54
2023-01-09T06:29:41.530Z,76.51
2023-01-09T06:32:28.287Z,76.56
2023-01-09T06:35:20.181Z,76.60
2023-01-09T06:38:07.003Z,76.71
2023-01-09T06:40:53.823Z,76.30
2023-01-09T06:43:40.677Z,76.53
2023-01-09T06:46:27.584Z,76.93
2023-01-09T06:49:16.246Z,76.12
2023-01-09T06:52:05.743Z,76.42
2023-01-09T06:54:52.553Z,76.60
2023-01-09T06:57:39.394Z,76.41
2023-01-09T07:00:27.175Z,76.59
2023-01-09T07:03:19.651Z,76.49
2023-01-09T07:06:16.841Z,76.52
2023-01-09T07:09:04.934Z,76.62
2023-01-09T07:11:51.731Z,76.62
2023-01-09T07:14:38.510Z,76.54
2023-01-09T07:17:25.577Z,76.56
2023-01-09T07:20:12.469Z,76.41
2023-01-09T07:22:59.227Z,76.48
2023-01-09T07:25:49.351Z,76.61
2023-01-09T07:28:36.144Z,76.75
2023-01-09T07:31:22.934Z,76.16
2023-01-09T07:34:09.962Z,76.14
2023-01-09T07:36:56.800Z,76.45
2023-01-09T07:39:44.045Z,76.39
2023-01-09T07:42:30.856Z,76.19
2023-01-09T07:45:17.700Z,76.33
2023-01-09T07:48:04.878Z,76.06
2023-01-09T07:50:51.706Z,76.54
2023-01-09T07:53:38.485Z,76.69
2023-01-09T07:56:25.272Z,76.68
2023-01-09T07:59:12.102Z,76.87
2023-01-09T08:01:58.960Z,76.71
2023-01-09T08:04:45.861Z,76.47
2023-01-09T08:07:32.709Z,76.79
2023-01-09T08:10:20.041Z,76.55
2023-01-09T08:13:07.014Z,76.52
2023-01-09T08:15:53.860Z,76.46
2023-01-09T08:18:40.656Z,76.22
2023-01-09T08:21:27.454Z,76.18
2023-01-09T08:24:14.236Z,76.43
2023-01-09T08:27:01.026Z,76.46
2023-01-09T08:29:47.834Z,76.33
2023-01-09T08:32:34.593Z,76.44
2023-01-09T08:35:21.600Z,76.53
2023-01-09T08:38:08.381Z,76.56
2023-01-09T08:40:55.168Z,76.28
2023-01-09T08:44:03.952Z,76.43
2023-01-09T08:47:05.597Z,76.37
2023-01-09T08:49:52.393Z,76.36
2023-01-09T08:52:39.369Z,76.39
2023-01-09T08:55:26.561Z,76.87
2023-01-09T08:58:15.773Z,76.59
2023-01-09T09:01:05.020Z,76.77
2023-01-09T09:03:51.782Z,77.00
2023-01-09T09:06:38.619Z,77.03
2023-01-09T09:09:25.799Z,77.41
2023-01-09T09:12:12.578Z,77.43
2023-01-09T09:15:16.503Z,77.19
2023-01-09T09:18:05.162Z,77.65
2023-01-09T09:20:51.913Z,77.37
2023-01-09T09:23:38.676Z,77.62
2023-01-09T09:26:28.450Z,77.65
2023-01-09T09:29:16.483Z,77.84
2023-01-09T09:32:03.425Z,78.03
2023-01-09T09:34:50.219Z,77.92
2023-01-09T09:37:37.555Z,77.37
2023-01-09T09:40:47.477Z,77.72
2023-01-09T09:44:21.491Z,78.03
2023-01-09T09:47:23.578Z,77.79
2023-01-09T09:50:54.997Z,77.42
2023-01-09T09:54:00.860Z,77.56
2023-01-09T09:56:50.937Z,77.55
2023-01-09T09:59:38.796Z,77.70
2023-01-09T10:02:35.661Z,77.38
2023-01-09T10:05:35.612Z,77.15
2023-01-09T10:08:48.261Z,77.70
2023-01-09T10:11:50.316Z,78.00
2023-01-09T10:14:37.266Z,78.35
2023-01-09T10:17:23.914Z,78.01
2023-01-09T10:20:37.410Z,78.15
2023-01-09T10:24:20.995Z,78.44
2023-01-09T10:27:41.053Z,78.79
2023-01-09T10:30:34.258Z,78.02
2023-01-09T10:33:39.875Z,78.24
2023-01-09T10:36:35.429Z,78.13
2023-01-09T10:39:31.497Z,77.84
2023-01-09T10:42:41.559Z,78.04
2023-01-09T10:45:50.573Z,78.05
2023-01-09T10:48:38.768Z,77.65
2023-01-09T10:51:31.695Z,77.44
2023-01-09T10:54:23.601Z,77.38
2023-01-09T10:57:19.668Z,77.54
2023-01-09T11:00:07.325Z,77.18
2023-01-09T11:02:55.065Z,77.11
2023-01-09T11:05:42.125Z,77.51
2023-01-09T11:08:41.816Z,77.40
2023-01-09T11:11:37.377Z,77.36
2023-01-09T11:14:31.429Z,77.41
2023-01-09T11:17:25.613Z,77.08
2023-01-09T11:20:17.189Z,77.17
2023-01-09T11:23:03.992Z,77.19
2023-01-09T11:25:56.424Z,77.40
2023-01-09T11:28:43.226Z,76.88
2023-01-09T11:31:30.383Z,77.20
2023-01-09T11:34:25.542Z,76.85
2023-01-09T11:37:15.892Z,76.97
2023-01-09T11:40:02.853Z,77.18
2023-01-09T11:43:13.397Z,77.05
2023-01-09T11:46:06.370Z,77.35
2023-01-09T11:48:56.874Z,77.04
2023-01-09T11:51:44.265Z,77.24
2023-01-09T11:54:32.755Z,77.13
2023-01-09T11:57:21.727Z,77.31
2023-01-09T12:00:27.864Z,77.06
2023-01-09T12:03:28.766Z,77.20
2023-01-09T12:06:49.578Z,77.27
2023-01-09T12:09:57.137Z,77.16
2023-01-09T12:13:08.593Z,77.17
2023-01-09T12:16:24.223Z,76.85
2023-01-09T12:19:53.184Z,76.72
2023-01-09T12:23:05.220Z,76.81
2023-01-09T12:26:15.236Z,76.85
2023-01-09T12:29:05.586Z,77.38
2023-01-09T12:32:11.997Z,76.83
2023-01-09T12:35:31.295Z,77.34
2023-01-09T12:38:27.366Z,77.12
2023-01-09T12:41:39.281Z,77.04
2023-01-09T12:44:36.047Z,77.15
2023-01-09T12:47:38.929Z,77.04
2023-01-09T12:50:56.112Z,76.83
2023-01-09T12:53:47.112Z,76.72
2023-01-09T12:56:38.839Z,77.26
2023-01-09T12:59:35.910Z,77.13
2023-01-09T13:02:27.567Z,77.04
2023-01-09T13:05:21.603Z,77.00
2023-01-09T13:08:43.953Z,76.83
2023-01-09T13:12:01.609Z,77.16
2023-01-09T13:14:53.300Z,76.92
2023-01-09T13:17:47.877Z,76.95
2023-01-09T13:20:45.846Z,77.04
2023-01-09T13:23:39.092Z,76.86
2023-01-09T13:26:29.597Z,76.86
2023-01-09T13:29:50.494Z,76.81
2023-01-09T13:32:49.320Z,76.60
2023-01-09T13:35:54.047Z,76.58
2023-01-09T13:38:40.864Z,76.89
2023-01-09T13:41:46.906Z,77.07
2023-01-09T13:44:34.648Z,77.01
2023-01-09T13:47:28.633Z,76.70
2023-01-09T13:50:24.928Z,76.96
2023-01-09T13:53:40.303Z,77.12
2023-01-09T13:56:27.085Z,77.12
2023-01-09T13:59:27.950Z,76.80
2023-01-09T14:02:41.289Z,77.35
2023-01-09T14:05:28.009Z,76.66
2023-01-09T14:08:23.082Z,76.74
2023-01-09T14:11:10.412Z,76.57
2023-01-09T14:14:02.408Z,76.68
2023-01-09T14:16:49.349Z,76.38
2023-01-09T14:19:38.581Z,76.24
2023-01-09T14:22:28.228Z,76.79
2023-01-09T14:28:22.568Z,76.42
2023-01-09T14:31:09.848Z,76.77
2023-01-09T14:34:35.712Z,76.37
2023-01-09T14:37:22.586Z,76.42
2023-01-09T14:40:23.160Z,76.44
2023-01-09T14:43:21.729Z,76.56
2023-01-09T14:46:16.524Z,76.31
2023-01-09T14:49:07.513Z,76.02
2023-01-09T14:51:55.509Z,75.92
2023-01-09T14:54:43.603Z,76.22
2023-01-09T14:57:33.874Z,75.87
2023-01-09T15:00:22.179Z,76.17
2023-01-09T15:03:09.785Z,75.68
2023-01-09T15:05:56.841Z,75.86
2023-01-09T15:08:45.966Z,75.70
2023-01-09T15:11:33.282Z,76.07
2023-01-09T15:14:29.258Z,76.04
2023-01-09T15:17:21.033Z,75.44
2023-01-09T15:20:08.582Z,75.43
2023-01-09T15:22:56.297Z,75.50
2023-01-09T15:25:43.099Z,75.47
2023-01-09T15:28:32.202Z,75.41
2023-01-09T15:31:19.405Z,75.20
2023-01-09T15:34:06.162Z,75.07
2023-01-09T15:36:53.615Z,74.94
2023-01-09T15:39:40.403Z,75.04
2023-01-09T15:42:48.975Z,74.87
2023-01-09T15:45:40.495Z,74.94
2023-01-09T15:48:34.842Z,74.99
2023-01-09T15:51:21.995Z,74.88
2023-01-09T15:54:14.330Z,74.75
2023-01-09T15:57:26.198Z,74.59
2023-01-09T16:00:31.196Z,74.48
2023-01-09T16:03:20.361Z,74.44
2023-01-09T16:06:07.984Z,74.73
2023-01-09T16:08:59.718Z,74.43
2023-01-09T16:11:54.340Z,74.26
2023-01-09T16:14:45.596Z,74.35
2023-01-09T16:17:36.607Z,74.46
2023-01-09T16:20:26.904Z,74.48
2023-01-09T16:23:34.401Z,74.27
2023-01-09T16:26:23.825Z,74.41
2023-01-09T16:29:33.613Z,74.44
2023-01-09T16:32:25.612Z,74.39
2023-01-09T16:35:17.662Z,74.56
2023-01-09T16:38:04.503Z,74.43
2023-01-09T16:41:24.302Z,74.54
2023-01-09T16:44:11.336Z,74.41
2023-01-09T16:47:01.230Z,74.52
2023-01-09T16:49:47.985Z,74.45
2023-01-09T16:52:34.748Z,74.30
2023-01-09T16:55:21.514Z,74.28
2023-01-09T16:58:13.976Z,74.74
2023-01-09T17:01:00.791Z,74.64
2023-01-09T17:03:48.240Z,74.49
2023-01-09T17:06:37.226Z,74.96
2023-01-09T17:09:27.345Z,74.43
2023-01-09T17:12:19.940Z,74.62
2023-01-09T17:15:11.480Z,74.88
2023-01-09T17:18:00.870Z,74.87
2023-01-09T17:20:59.497Z,74.68
2023-01-09T17:23:46.999Z,74.74
2023-01-09T17:26:52.926Z,74.64
2023-01-09T17:29:45.583Z,74.90
2023-01-09T17:32:33.022Z,74.61
2023-01-09T17:35:19.868Z,74.70
2023-01-09T17:38:14.826Z,74.79
2023-01-09T17:41:01.629Z,74.84
2023-01-09T17:43:50.554Z,75.05
2023-01-09T17:46:43.168Z,74.77
2023-01-09T17:49:39.822Z,74.95
2023-01-09T17:52:26.794Z,74.78
2023-01-09T17:55:16.385Z,74.69
2023-01-09T17:58:06.568Z,74.77
2023-01-09T18:00:57.605Z,74.75
2023-01-09T18:03:52.046Z,75.14
2023-01-09T18:06:39.064Z,75.25
2023-01-09T18:09:28.556Z,75.10
2023-01-09T18:12:15.461Z,74.88
2023-01-09T18:15:02.729Z,74.86
2023-01-09T18:17:49.496Z,74.82
2023-01-09T18:20:40.601Z,75.27
2023-01-09T18:23:27.457Z,74.88
2023-01-09T18:26:21.205Z,75.15
2023-01-09T18:29:09.336Z,75.16
2023-01-09T18:31:56.290Z,75.34
2023-01-09T18:34:45.753Z,75.36
2023-01-09T18:37:34.943Z,74.98
2023-01-09T18:40:37.120Z,75.27
2023-01-09T18:43:24.224Z,74.83
2023-01-09T18:46:11.898Z,75.28
2023-01-09T18:49:58.322Z,75.15
2023-01-09T18:52:18.757Z,75.11
2023-01-09T18:55:08.332Z,75.21
2023-01-09T18:57:56.111Z,75.54
2023-01-09T19:00:51.781Z,75.30
2023-01-09T19:03:39.396Z,75.40
2023-01-09T19:06:35.451Z,75.16
2023-01-09T19:09:22.429Z,75.52
2023-01-09T19:12:11.593Z,75.32
2023-01-09T19:14:58.374Z,75.25
2023-01-09T19:17:46.883Z,75.52
2023-01-09T19:20:43.517Z,75.38
2023-01-09T19:23:33.930Z,75.53
2023-01-09T19:26:23.979Z,75.45
2023-01-09T19:29:21.025Z,75.19
2023-01-09T19:32:11.245Z,75.43
2023-01-09T19:35:04.209Z,75.26
2023-01-09T19:37:51.177Z,75.15
2023-01-09T19:40:38.081Z,75.10
2023-01-09T19:43:27.855Z,75.08
2023-01-09T19:46:19.857Z,75.24
2023-01-09T19:49:06.801Z,75.40
2023-01-09T19:51:55.861Z,75.13
2023-01-09T19:54:42.732Z,75.04
2023-01-09T19:57:34.133Z,75.05
2023-01-09T20:00:27.205Z,75.31
2023-01-09T20:03:24.427Z,75.00
2023-01-09T20:06:17.481Z,75.29
2023-01-09T20:09:04.790Z,75.02
2023-01-09T20:11:51.612Z,75.40
2023-01-09T20:14:41.652Z,74.84
2023-01-09T20:17:28.639Z,75.74
2023-01-09T20:20:16.295Z,75.43
2023-01-09T20:23:03.123Z,75.34
2023-01-09T20:25:50.796Z,75.59
2023-01-09T20:28:37.600Z,75.29
2023-01-09T20:31:29.003Z,75.48
2023-01-09T20:34:16.158Z,75.54
2023-01-09T20:37:03.048Z,74.95
2023-01-09T20:39:54.846Z,75.31
2023-01-09T20:42:41.649Z,75.57
2023-01-09T20:45:28.537Z,75.27
2023-01-09T20:48:15.417Z,75.25
2023-01-09T20:51:06.927Z,75.59
2023-01-09T20:53:58.246Z,75.27
2023-01-09T20:56:45.197Z,74.87
2023-01-09T20:59:32.036Z,75.22
2023-01-09T21:02:20.034Z,75.15
2023-01-09T21:05:07.287Z,75.24
2023-01-09T21:07:54.149Z,75.47
2023-01-09T21:10:41.077Z,74.90
2023-01-09T21:13:31.183Z,75.11
2023-01-09T21:16:21.417Z,75.27
2023-01-09T21:19:12.536Z,75.48
2023-01-09T21:22:05.141Z,75.61
2023-01-09T21:24:54.836Z,75.24
2023-01-09T21:27:47.439Z,75.22
2023-01-09T21:30:34.753Z,75.04
2023-01-09T21:33:24.657Z,75.24
2023-01-09T21:36:14.485Z,75.26
2023-01-09T21:39:01.303Z,75.55
2023-01-09T21:42:06.796Z,75.04
2023-01-09T21:45:12.317Z,75.25
2023-01-09T21:47:59.421Z,75.42
2023-01-09T21:50:46.323Z,75.43
2023-01-09T21:53:33.160Z,75.68
2023-01-09T21:56:20.003Z,75.27
2023-01-09T21:59:10.398Z,75.47
2023-01-09T22:02:00.541Z,75.43
2023-01-09T22:04:49.164Z,75.46
2023-01-09T22:07:36.067Z,75.06
2023-01-09T22:10:22.932Z,75.25
2023-01-09T22:13:17.737Z,75.63
2023-01-09T22:16:06.675Z,75.59
2023-01-09T22:18:54.507Z,75.54
2023-01-09T22:21:41.574Z,75.53
2023-01-09T22:24:28.402Z,75.43
2023-01-09T22:27:15.448Z,75.17
2023-01-09T22:30:05.029Z,75.65
2023-01-09T22:32:51.837Z,75.60
2023-01-09T22:35:42.302Z,75.55
2023-01-09T22:38:29.227Z,75.54
2023-01-09T22:41:16.025Z,75.58
2023-01-09T22:44:02.808Z,75.57
2023-01-09T22:46:49.682Z,75.28
2023-01-09T22:49:51.857Z,75.63
2023-01-09T22:52:42.448Z,75.43
2023-01-09T22:55:29.203Z,75.55
2023-01-09T22:58:16.032Z,75.49
2023-01-09T23:01:03.482Z,75.63
2023-01-09T23:03:50.383Z,75.51
2023-01-09T23:06:37.149Z,75.42
2023-01-09T23:09:24.617Z,75.60
2023-01-09T23:12:11.435Z,75.44
2023-01-09T23:15:00.946Z,75.40
2023-01-09T23:17:48.236Z,75.88
2023-01-09T23:20:35.164Z,75.84
2023-01-09T23:23:22.868Z,75.91
2023-01-09T23:26:10.141Z,75.80
2023-01-09T23:28:57.218Z,75.46
2023-01-09T23:31:45.442Z,75.65
2023-01-09T23:34:34.741Z,75.78
2023-01-09T23:37:21.929Z,75.76
2023-01-09T23:40:09.826Z,75.54
2023-01-09T23:43:11.773Z,75.50
2023-01-09T23:45:58.600Z,75.41
2023-01-09T23:48:46.598Z,76.02
2023-01-09T23:51:34.453Z,75.41
2023-01-09T23:54:21.336Z,75.86
2023-01-09T23:57:08.242Z,75.66
2023-01-09T23:59:55.105Z,75.75
